PWSweather.com
Personal Weather Stations
Station Observations
WAREHAM1
West Wareham, MA 02576

West Wareham, MA 02576

Lat: 41.7961059, Lon: -70.775612

Elevation: 88

Station Type: Davis Vantage Vue

http://www.gateway2capecod.com

High Low Average
Temperature 47.8°F8.8°F 39.0°F3.9°F 43.8°F6.6°F
Dew Point 42.3°F5.7°F 33.6°F0.9°F 38.3°F3.5°F
Winds 8.1 mph E13.0 mph E Calm Calm 2.5 mph 4.0 mph
Wind Gusts 24.0 mph38.6 mph -- 8.4 mph13.5 mph
Humidity 95% 58% 82%
Pressure 30.20 in1022.70 in 29.57 in1001.40 in -
Precipitation 9.73 in247.10 in - -
Hour Temp Dew Point Humidity Winds Wind Gusts Pressure Precip Precip Rate Daily Precip Total
12:09 AM 47.3°F8.5°C 34.9°F1.6°C 62% Calm Calm -- 30.14 in1020.7 mb 0.00 in0.0 mm 0.00 in/hr0.0 mm/hr 0.00 in0.0 mm
12:19 AM 47.1°F8.4°C 34.7°F1.5°C 62% Calm Calm -- 30.14 in1020.7 mb 0.00 in0.0 mm 0.00 in/hr0.0 mm/hr 0.00 in0.0 mm
12:29 AM 47.1°F8.4°C 34.7°F1.5°C 62% Calm Calm -- 30.15 in1021.0 mb 0.00 in0.0 mm 0.00 in/hr0.0 mm/hr 0.00 in0.0 mm
12:39 AM 47.1°F8.4°C 34.3°F1.3°C 61% Calm Calm -- 30.15 in1021.0 mb 0.00 in0.0 mm 0.00 in/hr0.0 mm/hr 0.00 in0.0 mm
12:49 AM 47.1°F8.4°C 34.7°F1.5°C 62% Calm Calm -- 30.16 in1021.3 mb 0.00 in0.0 mm 0.00 in/hr0.0 mm/hr 0.00 in0.0 mm
12:59 AM 46.9°F8.3°C 35.4°F1.9°C 64% Calm Calm -- 30.14 in1020.7 mb 0.00 in0.0 mm 0.00 in/hr0.0 mm/hr 0.00 in0.0 mm
01:09 AM 46.8°F8.2°C 36.0°F2.2°C 66% Calm Calm -- 30.14 in1020.7 mb 0.00 in0.0 mm 0.00 in/hr0.0 mm/hr 0.00 in0.0 mm
01:19 AM 46.8°F8.2°C 35.6°F2.0°C 65% Calm Calm -- 30.14 in1020.7 mb 0.00 in0.0 mm 0.00 in/hr0.0 mm/hr 0.00 in0.0 mm
01:29 AM 46.8°F8.2°C 35.6°F2.0°C 65% Calm Calm -- 30.15 in1021.0 mb 0.00 in0.0 mm 0.00 in/hr0.0 mm/hr 0.00 in0.0 mm
01:39 AM 46.8°F8.2°C 35.6°F2.0°C 65% Calm Calm 1.0 mph1.6 kmh 30.16 in1021.3 mb 0.00 in0.0 mm 0.00 in/hr0.0 mm/hr 0.00 in0.0 mm
01:49 AM 46.9°F8.3°C 36.1°F2.3°C 66% Calm Calm -- 30.16 in1021.3 mb 0.00 in0.0 mm 0.00 in/hr0.0 mm/hr 0.00 in0.0 mm
01:59 AM 46.9°F8.3°C 36.1°F2.3°C 66% Calm Calm -- 30.17 in1021.7 mb 0.00 in0.0 mm 0.00 in/hr0.0 mm/hr 0.00 in0.0 mm
02:09 AM 46.9°F8.3°C 35.8°F2.1°C 65% Calm Calm 0.9 mph1.4 kmh 30.17 in1021.7 mb 0.00 in0.0 mm 0.00 in/hr0.0 mm/hr 0.00 in0.0 mm
02:19 AM 47.1°F8.4°C 34.0°F1.1°C 60% Calm Calm 2.9 mph4.7 kmh 30.17 in1021.7 mb 0.00 in0.0 mm 0.00 in/hr0.0 mm/hr 0.00 in0.0 mm
02:29 AM 47.8°F8.8°C 33.8°F1.0°C 58% 0.9 mph WNW1.4 kmh WNW 4.0 mph6.4 kmh 30.17 in1021.7 mb 0.00 in0.0 mm 0.00 in/hr0.0 mm/hr 0.00 in0.0 mm
02:39 AM 47.8°F8.8°C 33.8°F1.0°C 58% Calm Calm 2.0 mph3.2 kmh 30.17 in1021.7 mb 0.00 in0.0 mm 0.00 in/hr0.0 mm/hr 0.00 in0.0 mm
02:49 AM 47.7°F8.7°C 33.6°F0.9°C 58% Calm Calm 2.9 mph4.7 kmh 30.17 in1021.7 mb 0.00 in0.0 mm 0.00 in/hr0.0 mm/hr 0.00 in0.0 mm
02:59 AM 47.7°F8.7°C 34.0°F1.1°C 59% Calm Calm 2.0 mph3.2 kmh 30.18 in1022.0 mb 0.00 in0.0 mm 0.00 in/hr0.0 mm/hr 0.00 in0.0 mm
03:09 AM 47.5°F8.6°C 33.8°F1.0°C 59% Calm Calm 0.9 mph1.4 kmh 30.18 in1022.0 mb 0.00 in0.0 mm 0.00 in/hr0.0 mm/hr 0.00 in0.0 mm
03:19 AM 47.5°F8.6°C 34.3°F1.3°C 60% Calm Calm 2.0 mph3.2 kmh 30.18 in1022.0 mb 0.00 in0.0 mm 0.00 in/hr0.0 mm/hr 0.00 in0.0 mm
03:29 AM 47.1°F8.4°C 34.0°F1.1°C 60% Calm Calm 2.9 mph4.7 kmh 30.18 in1022.0 mb 0.00 in0.0 mm 0.00 in/hr0.0 mm/hr 0.00 in0.0 mm
03:39 AM 46.9°F8.3°C 34.2°F1.2°C 61% Calm Calm 0.9 mph1.4 kmh 30.19 in1022.4 mb 0.00 in0.0 mm 0.00 in/hr0.0 mm/hr 0.00 in0.0 mm
03:49 AM 46.9°F8.3°C 34.2°F1.2°C 61% 0.9 mph NNW1.4 kmh NNW 2.9 mph4.7 kmh 30.18 in1022.0 mb 0.00 in0.0 mm 0.00 in/hr0.0 mm/hr 0.00 in0.0 mm
03:59 AM 46.9°F8.3°C 34.2°F1.2°C 61% Calm Calm 2.0 mph3.2 kmh 30.19 in1022.4 mb 0.00 in0.0 mm 0.00 in/hr0.0 mm/hr 0.00 in0.0 mm
04:09 AM 46.9°F8.3°C 33.8°F1.0°C 60% 0.9 mph NNE1.4 kmh NNE 2.9 mph4.7 kmh 30.19 in1022.4 mb 0.00 in0.0 mm 0.00 in/hr0.0 mm/hr 0.00 in0.0 mm
04:19 AM 46.9°F8.3°C 33.8°F1.0°C 60% Calm Calm 2.9 mph4.7 kmh 30.19 in1022.4 mb 0.00 in0.0 mm 0.00 in/hr0.0 mm/hr 0.00 in0.0 mm
04:29 AM 46.9°F8.3°C 33.8°F1.0°C 60% Calm Calm 2.0 mph3.2 kmh 30.19 in1022.4 mb 0.00 in0.0 mm 0.00 in/hr0.0 mm/hr 0.00 in0.0 mm
04:39 AM 46.9°F8.3°C 33.8°F1.0°C 60% Calm Calm 2.0 mph3.2 kmh 30.19 in1022.4 mb 0.00 in0.0 mm 0.00 in/hr0.0 mm/hr 0.00 in0.0 mm
04:49 AM 46.9°F8.3°C 33.8°F1.0°C 60% 0.9 mph N1.4 kmh N 4.0 mph6.4 kmh 30.18 in1022.0 mb 0.00 in0.0 mm 0.00 in/hr0.0 mm/hr 0.00 in0.0 mm
04:59 AM 46.9°F8.3°C 33.8°F1.0°C 60% 0.9 mph W1.4 kmh W 4.0 mph6.4 kmh 30.18 in1022.0 mb 0.00 in0.0 mm 0.00 in/hr0.0 mm/hr 0.00 in0.0 mm
05:09 AM 46.8°F8.2°C 33.6°F0.9°C 60% Calm Calm 0.9 mph1.4 kmh 30.17 in1021.7 mb 0.00 in0.0 mm 0.00 in/hr0.0 mm/hr 0.00 in0.0 mm
05:19 AM 46.8°F8.2°C 33.6°F0.9°C 60% Calm Calm 2.0 mph3.2 kmh 30.16 in1021.3 mb 0.00 in0.0 mm 0.00 in/hr0.0 mm/hr 0.00 in0.0 mm
05:29 AM 46.6°F8.1°C 33.8°F1.0°C 61% Calm Calm 2.0 mph3.2 kmh 30.16 in1021.3 mb 0.00 in0.0 mm 0.00 in/hr0.0 mm/hr 0.00 in0.0 mm
05:39 AM 46.4°F8.0°C 34.2°F1.2°C 62% Calm Calm 0.9 mph1.4 kmh 30.15 in1021.0 mb 0.00 in0.0 mm 0.00 in/hr0.0 mm/hr 0.00 in0.0 mm
05:49 AM 46.4°F8.0°C 34.2°F1.2°C 62% Calm Calm 0.9 mph1.4 kmh 30.15 in1021.0 mb 0.00 in0.0 mm 0.00 in/hr0.0 mm/hr 0.00 in0.0 mm
05:59 AM 46.4°F8.0°C 33.6°F0.9°C 61% Calm Calm 3.0 mph4.8 kmh 30.16 in1021.3 mb 0.00 in0.0 mm 0.00 in/hr0.0 mm/hr 0.00 in0.0 mm
06:09 AM 46.4°F8.0°C 33.6°F0.9°C 61% Calm Calm 0.9 mph1.4 kmh 30.16 in1021.3 mb 0.00 in0.0 mm 0.00 in/hr0.0 mm/hr 0.00 in0.0 mm
06:19 AM 46.2°F7.9°C 34.0°F1.1°C 62% Calm Calm 0.9 mph1.4 kmh 30.17 in1021.7 mb 0.00 in0.0 mm 0.00 in/hr0.0 mm/hr 0.00 in0.0 mm
06:29 AM 46.2°F7.9°C 34.0°F1.1°C 62% 0.9 mph WNW1.4 kmh WNW 2.9 mph4.7 kmh 30.17 in1021.7 mb 0.00 in0.0 mm 0.00 in/hr0.0 mm/hr 0.00 in0.0 mm
06:39 AM 46.2°F7.9°C 34.3°F1.3°C 63% Calm Calm 2.0 mph3.2 kmh 30.18 in1022.0 mb 0.00 in0.0 mm 0.00 in/hr0.0 mm/hr 0.00 in0.0 mm
06:49 AM 46.0°F7.8°C 34.2°F1.2°C 63% Calm Calm 2.0 mph3.2 kmh 30.18 in1022.0 mb 0.00 in0.0 mm 0.00 in/hr0.0 mm/hr 0.00 in0.0 mm
06:59 AM 45.9°F7.7°C 34.0°F1.1°C 63% Calm Calm 3.0 mph4.8 kmh 30.17 in1021.7 mb 0.00 in0.0 mm 0.00 in/hr0.0 mm/hr 0.00 in0.0 mm
07:09 AM 45.7°F7.6°C 34.2°F1.2°C 64% 0.9 mph NE1.4 kmh NE 2.9 mph4.7 kmh 30.16 in1021.3 mb 0.00 in0.0 mm 0.00 in/hr0.0 mm/hr 0.00 in0.0 mm
07:19 AM 45.7°F7.6°C 34.5°F1.4°C 65% 0.9 mph NE1.4 kmh NE 2.9 mph4.7 kmh 30.16 in1021.3 mb 0.00 in0.0 mm 0.00 in/hr0.0 mm/hr 0.00 in0.0 mm
07:29 AM 45.5°F7.5°C 34.3°F1.3°C 65% 0.9 mph E1.4 kmh E 3.0 mph4.8 kmh 30.16 in1021.3 mb 0.00 in0.0 mm 0.00 in/hr0.0 mm/hr 0.00 in0.0 mm
07:39 AM 45.3°F7.4°C 35.8°F2.1°C 69% Calm Calm 2.0 mph3.2 kmh 30.15 in1021.0 mb 0.00 in0.0 mm 0.00 in/hr0.0 mm/hr 0.00 in0.0 mm
07:49 AM 45.0°F7.2°C 35.4°F1.9°C 69% Calm Calm 2.0 mph3.2 kmh 30.16 in1021.3 mb 0.00 in0.0 mm 0.00 in/hr0.0 mm/hr 0.00 in0.0 mm
07:59 AM 44.8°F7.1°C 35.6°F2.0°C 70% Calm Calm 0.9 mph1.4 kmh 30.16 in1021.3 mb 0.00 in0.0 mm 0.00 in/hr0.0 mm/hr 0.00 in0.0 mm
08:09 AM 44.8°F7.1°C 35.2°F1.8°C 69% Calm Calm 2.0 mph3.2 kmh 30.15 in1021.0 mb 0.00 in0.0 mm 0.00 in/hr0.0 mm/hr 0.00 in0.0 mm
08:19 AM 44.8°F7.1°C 36.0°F2.2°C 71% Calm Calm -- 30.18 in1022.0 mb 0.00 in0.0 mm 0.00 in/hr0.0 mm/hr 0.00 in0.0 mm
08:29 AM 44.8°F7.1°C 35.6°F2.0°C 70% Calm Calm 0.9 mph1.4 kmh 30.19 in1022.4 mb 0.00 in0.0 mm 0.00 in/hr0.0 mm/hr 0.00 in0.0 mm
08:39 AM 44.8°F7.1°C 36.0°F2.2°C 71% Calm Calm -- 30.20 in1022.7 mb 0.00 in0.0 mm 0.00 in/hr0.0 mm/hr 0.00 in0.0 mm
08:49 AM 44.8°F7.1°C 37.0°F2.8°C 74% Calm Calm 0.9 mph1.4 kmh 30.20 in1022.7 mb 0.00 in0.0 mm 0.00 in/hr0.0 mm/hr 0.00 in0.0 mm
08:59 AM 44.6°F7.0°C 36.9°F2.7°C 74% Calm Calm 0.9 mph1.4 kmh 30.19 in1022.4 mb 0.00 in0.0 mm 0.00 in/hr0.0 mm/hr 0.00 in0.0 mm
09:09 AM 44.4°F6.9°C 37.4°F3.0°C 76% Calm Calm 0.9 mph1.4 kmh 30.19 in1022.4 mb 0.00 in0.0 mm 0.00 in/hr0.0 mm/hr 0.00 in0.0 mm
09:19 AM 44.1°F6.7°C 37.6°F3.1°C 78% Calm Calm 2.0 mph3.2 kmh 30.20 in1022.7 mb 0.00 in0.0 mm 0.00 in/hr0.0 mm/hr 0.00 in0.0 mm
09:29 AM 43.7°F6.5°C 37.6°F3.1°C 79% 0.9 mph NW1.4 kmh NW 4.9 mph7.9 kmh 30.18 in1022.0 mb 0.00 in0.0 mm 0.00 in/hr0.0 mm/hr 0.00 in0.0 mm
09:39 AM 43.2°F6.2°C 37.8°F3.2°C 81% 0.9 mph N1.4 kmh N 4.9 mph7.9 kmh 30.19 in1022.4 mb 0.01 in0.3 mm 0.06 in/hr1.5 mm/hr 0.01 in0.3 mm
09:49 AM 42.4°F5.8°C 38.3°F3.5°C 85% 0.9 mph NW1.4 kmh NW 2.9 mph4.7 kmh 30.17 in1021.7 mb 0.01 in0.3 mm 0.00 in/hr0.0 mm/hr 0.01 in0.3 mm
09:59 AM 42.1°F5.6°C 38.5°F3.6°C 87% Calm Calm 2.9 mph4.7 kmh 30.16 in1021.3 mb 0.01 in0.3 mm 0.00 in/hr0.0 mm/hr 0.01 in0.3 mm
10:09 AM 41.5°F5.3°C 38.5°F3.6°C 89% 2.0 mph NNE3.2 kmh NNE 6.0 mph9.7 kmh 30.14 in1020.7 mb 0.02 in0.5 mm 0.01 in/hr0.3 mm/hr 0.02 in0.5 mm
10:19 AM 41.4°F5.2°C 38.7°F3.7°C 90% 2.0 mph NE3.2 kmh NE 6.9 mph11.1 kmh 30.14 in1020.7 mb 0.02 in0.5 mm 0.00 in/hr0.0 mm/hr 0.02 in0.5 mm
10:29 AM 41.2°F5.1°C 38.8°F3.8°C 91% 2.0 mph N3.2 kmh N 6.9 mph11.1 kmh 30.13 in1020.3 mb 0.03 in0.8 mm 0.06 in/hr1.5 mm/hr 0.03 in0.8 mm
10:39 AM 41.2°F5.1°C 38.8°F3.8°C 91% 2.0 mph E3.2 kmh E 4.9 mph7.9 kmh 30.14 in1020.7 mb 0.03 in0.8 mm 0.00 in/hr0.0 mm/hr 0.04 in1.0 mm
10:49 AM 41.2°F5.1°C 39.0°F3.9°C 92% 0.9 mph NE1.4 kmh NE 6.9 mph11.1 kmh 30.12 in1020.0 mb 0.06 in1.5 mm 0.18 in/hr4.6 mm/hr 0.07 in1.8 mm
10:59 AM 41.2°F5.1°C 39.4°F4.1°C 93% 0.9 mph NNW1.4 kmh NNW 4.9 mph7.9 kmh 30.11 in1019.6 mb 0.09 in2.3 mm 0.18 in/hr4.6 mm/hr 0.11 in2.8 mm
11:09 AM 41.4°F5.2°C 39.6°F4.2°C 93% 0.9 mph NNW1.4 kmh NNW 6.9 mph11.1 kmh 30.11 in1019.6 mb 0.09 in2.3 mm 0.00 in/hr0.0 mm/hr 0.11 in2.8 mm
11:19 AM 41.5°F5.3°C 39.7°F4.3°C 93% 0.9 mph NNW1.4 kmh NNW 4.0 mph6.4 kmh 30.11 in1019.6 mb 0.09 in2.3 mm 0.00 in/hr0.0 mm/hr 0.12 in3.0 mm
11:29 AM 41.5°F5.3°C 39.7°F4.3°C 93% 2.0 mph ENE3.2 kmh ENE 6.0 mph9.7 kmh 30.10 in1019.3 mb 0.10 in2.5 mm 0.06 in/hr1.5 mm/hr 0.13 in3.3 mm
11:39 AM 41.5°F5.3°C 39.9°F4.4°C 94% 2.0 mph N3.2 kmh N 7.0 mph11.3 kmh 30.09 in1019.0 mb 0.12 in3.0 mm 0.12 in/hr3.0 mm/hr 0.17 in4.3 mm
11:49 AM 41.7°F5.4°C 40.1°F4.5°C 94% 2.0 mph NE3.2 kmh NE 6.9 mph11.1 kmh 30.08 in1018.6 mb 0.12 in3.0 mm 0.00 in/hr0.0 mm/hr 0.19 in4.8 mm
11:59 AM 41.7°F5.4°C 40.1°F4.5°C 94% 2.0 mph NE3.2 kmh NE 4.9 mph7.9 kmh 30.07 in1018.3 mb 0.09 in2.3 mm 0.00 in/hr0.0 mm/hr 0.20 in5.1 mm
12:09 PM 41.5°F5.3°C 39.9°F4.4°C 94% 2.0 mph W3.2 kmh W 9.0 mph14.5 kmh 30.07 in1018.3 mb 0.10 in2.5 mm 0.01 in/hr0.3 mm/hr 0.22 in5.6 mm
12:19 PM 41.7°F5.4°C 40.1°F4.5°C 94% 0.9 mph N1.4 kmh N 8.9 mph14.3 kmh 30.07 in1018.3 mb 0.11 in2.8 mm 0.06 in/hr1.5 mm/hr 0.24 in6.1 mm
12:29 PM 41.7°F5.4°C 40.1°F4.5°C 94% 0.9 mph NW1.4 kmh NW 4.0 mph6.4 kmh 30.08 in1018.6 mb 0.11 in2.8 mm 0.00 in/hr0.0 mm/hr 0.25 in6.4 mm
12:39 PM 41.7°F5.4°C 40.1°F4.5°C 94% 2.0 mph NW3.2 kmh NW 11.0 mph17.7 kmh 30.06 in1017.9 mb 0.11 in2.8 mm 0.00 in/hr0.0 mm/hr 0.28 in7.1 mm
12:49 PM 41.5°F5.3°C 39.9°F4.4°C 94% 0.9 mph NE1.4 kmh NE 6.0 mph9.7 kmh 30.04 in1017.3 mb 0.12 in3.0 mm 0.06 in/hr1.5 mm/hr 0.32 in8.1 mm
12:59 PM 41.5°F5.3°C 39.9°F4.4°C 94% 0.9 mph NE1.4 kmh NE 7.0 mph11.3 kmh 30.02 in1016.6 mb 0.13 in3.3 mm 0.06 in/hr1.5 mm/hr 0.34 in8.6 mm
01:09 PM 41.4°F5.2°C 39.7°F4.3°C 94% 2.0 mph NNE3.2 kmh NNE 6.0 mph9.7 kmh 29.99 in1015.6 mb 0.13 in3.3 mm 0.00 in/hr0.0 mm/hr 0.35 in8.9 mm
01:19 PM 41.5°F5.3°C 40.3°F4.6°C 95% 2.9 mph NE4.7 kmh NE 10.1 mph16.3 kmh 29.99 in1015.6 mb 0.14 in3.6 mm 0.06 in/hr1.5 mm/hr 0.38 in9.7 mm
01:29 PM 41.7°F5.4°C 40.5°F4.7°C 95% 2.0 mph NE3.2 kmh NE 7.0 mph11.3 kmh 29.97 in1014.9 mb 0.13 in3.3 mm 0.00 in/hr0.0 mm/hr 0.39 in9.9 mm
01:39 PM 41.7°F5.4°C 40.5°F4.7°C 95% 2.0 mph N3.2 kmh N 8.1 mph13.0 kmh 29.99 in1015.6 mb 0.11 in2.8 mm 0.00 in/hr0.0 mm/hr 0.40 in10.2 mm
01:49 PM 42.1°F5.6°C 40.8°F4.9°C 95% 0.9 mph NNW1.4 kmh NNW 6.0 mph9.7 kmh 30.00 in1015.9 mb 0.11 in2.8 mm 0.00 in/hr0.0 mm/hr 0.43 in10.9 mm
01:59 PM 42.1°F5.6°C 40.8°F4.9°C 95% 2.0 mph NNE3.2 kmh NNE 6.9 mph11.1 kmh 30.01 in1016.3 mb 0.11 in2.8 mm 0.00 in/hr0.0 mm/hr 0.45 in11.4 mm
02:09 PM 42.3°F5.7°C 41.0°F5.0°C 95% 2.0 mph NNW3.2 kmh NNW 6.9 mph11.1 kmh 29.99 in1015.6 mb 0.12 in3.0 mm 0.01 in/hr0.3 mm/hr 0.48 in12.2 mm
02:19 PM 42.3°F5.7°C 41.0°F5.0°C 95% 2.0 mph NE3.2 kmh NE 8.1 mph13.0 kmh 29.98 in1015.2 mb 0.12 in3.0 mm 0.00 in/hr0.0 mm/hr 0.50 in12.7 mm
02:29 PM 42.4°F5.8°C 41.2°F5.1°C 95% 2.0 mph NNW3.2 kmh NNW 8.1 mph13.0 kmh 29.99 in1015.6 mb 0.15 in3.8 mm 0.18 in/hr4.6 mm/hr 0.55 in14.0 mm
02:39 PM 42.4°F5.8°C 41.2°F5.1°C 95% 2.0 mph NW3.2 kmh NW 6.0 mph9.7 kmh 29.97 in1014.9 mb 0.20 in5.1 mm 0.30 in/hr7.6 mm/hr 0.61 in15.5 mm
02:49 PM 42.3°F5.7°C 41.0°F5.0°C 95% 2.9 mph NE4.7 kmh NE 12.1 mph19.5 kmh 29.94 in1013.9 mb 0.24 in6.1 mm 0.24 in/hr6.1 mm/hr 0.68 in17.3 mm
02:59 PM 42.1°F5.6°C 40.8°F4.9°C 95% 4.0 mph ENE6.4 kmh ENE 16.1 mph25.9 kmh 29.95 in1014.2 mb 0.25 in6.4 mm 0.06 in/hr1.5 mm/hr 0.71 in18.0 mm
03:09 PM 41.7°F5.4°C 40.5°F4.7°C 95% 4.0 mph NE6.4 kmh NE 14.1 mph22.7 kmh 29.93 in1013.5 mb 0.28 in7.1 mm 0.04 in/hr1.0 mm/hr 0.76 in19.3 mm
03:19 PM 41.5°F5.3°C 40.3°F4.6°C 95% 2.9 mph E4.7 kmh E 11.0 mph17.7 kmh 29.91 in1012.9 mb 0.32 in8.1 mm 0.24 in/hr6.1 mm/hr 0.82 in20.8 mm
03:29 PM 41.5°F5.3°C 40.3°F4.6°C 95% 4.0 mph NE6.4 kmh NE 11.0 mph17.7 kmh 29.89 in1012.2 mb 0.33 in8.4 mm 0.06 in/hr1.5 mm/hr 0.89 in22.6 mm
03:39 PM 41.5°F5.3°C 40.3°F4.6°C 95% 2.9 mph NNW4.7 kmh NNW 11.0 mph17.7 kmh 29.90 in1012.5 mb 0.32 in8.1 mm 0.00 in/hr0.0 mm/hr 0.94 in23.9 mm
03:49 PM 41.5°F5.3°C 40.3°F4.6°C 95% 4.0 mph NNW6.4 kmh NNW 14.1 mph22.7 kmh 29.89 in1012.2 mb 0.29 in7.4 mm 0.00 in/hr0.0 mm/hr 0.97 in24.6 mm
03:59 PM 41.7°F5.4°C 40.5°F4.7°C 95% 4.9 mph WNW7.9 kmh WNW 16.1 mph25.9 kmh 29.85 in1010.8 mb 0.28 in7.1 mm 0.00 in/hr0.0 mm/hr 1.00 in25.4 mm
04:09 PM 41.7°F5.4°C 40.5°F4.7°C 95% 4.0 mph ENE6.4 kmh ENE 13.0 mph20.9 kmh 29.89 in1012.2 mb 0.27 in6.9 mm 0.00 in/hr0.0 mm/hr 1.04 in26.4 mm
04:19 PM 41.7°F5.4°C 40.5°F4.7°C 95% 6.0 mph NNE9.7 kmh NNE 14.1 mph22.7 kmh 29.88 in1011.9 mb 0.26 in6.6 mm 0.00 in/hr0.0 mm/hr 1.09 in27.7 mm
04:29 PM 41.7°F5.4°C 40.5°F4.7°C 95% 4.9 mph NW7.9 kmh NW 12.1 mph19.5 kmh 29.86 in1011.2 mb 0.25 in6.4 mm 0.00 in/hr0.0 mm/hr 1.14 in29.0 mm
04:39 PM 41.7°F5.4°C 40.5°F4.7°C 95% 6.0 mph NNE9.7 kmh NNE 16.1 mph25.9 kmh 29.84 in1010.5 mb 0.25 in6.4 mm 0.00 in/hr0.0 mm/hr 1.19 in30.2 mm
04:49 PM 41.7°F5.4°C 40.5°F4.7°C 95% 4.9 mph E7.9 kmh E 13.0 mph20.9 kmh 29.82 in1009.8 mb 0.23 in5.8 mm 0.00 in/hr0.0 mm/hr 1.22 in31.0 mm
04:59 PM 41.9°F5.5°C 40.6°F4.8°C 95% 6.0 mph NNW9.7 kmh NNW 17.9 mph28.8 kmh 29.83 in1010.2 mb 0.24 in6.1 mm 0.06 in/hr1.5 mm/hr 1.24 in31.5 mm
05:09 PM 42.3°F5.7°C 41.0°F5.0°C 95% 6.0 mph NE9.7 kmh NE 16.1 mph25.9 kmh 29.83 in1010.2 mb 0.22 in5.6 mm 0.00 in/hr0.0 mm/hr 1.27 in32.3 mm
05:19 PM 42.3°F5.7°C 41.0°F5.0°C 95% 6.9 mph NNW11.1 kmh NNW 21.0 mph33.8 kmh 29.78 in1008.5 mb 0.19 in4.8 mm 0.00 in/hr0.0 mm/hr 1.29 in32.8 mm
05:29 PM 42.3°F5.7°C 41.0°F5.0°C 95% 6.0 mph NNE9.7 kmh NNE 21.9 mph35.2 kmh 29.77 in1008.1 mb 0.16 in4.1 mm 0.00 in/hr0.0 mm/hr 1.31 in33.3 mm
05:39 PM 42.3°F5.7°C 41.0°F5.0°C 95% 4.9 mph NE7.9 kmh NE 14.1 mph22.7 kmh 29.77 in1008.1 mb 0.16 in4.1 mm 0.00 in/hr0.0 mm/hr 1.36 in34.5 mm
05:49 PM 42.4°F5.8°C 41.2°F5.1°C 95% 4.9 mph ENE7.9 kmh ENE 14.1 mph22.7 kmh 29.78 in1008.5 mb 0.20 in5.1 mm 0.24 in/hr6.1 mm/hr 1.42 in36.1 mm
05:59 PM 42.4°F5.8°C 41.2°F5.1°C 95% 6.0 mph N9.7 kmh N 24.0 mph38.6 kmh 29.75 in1007.5 mb 0.21 in5.3 mm 0.06 in/hr1.5 mm/hr 1.45 in36.8 mm
06:09 PM 42.4°F5.8°C 41.2°F5.1°C 95% 8.1 mph E13.0 kmh E 23.9 mph38.5 kmh 29.73 in1006.8 mb 0.21 in5.3 mm 0.00 in/hr0.0 mm/hr 1.48 in37.6 mm
06:19 PM 42.4°F5.8°C 41.2°F5.1°C 95% 8.1 mph NNE13.0 kmh NNE 23.0 mph37.0 kmh 29.75 in1007.5 mb 0.21 in5.3 mm 0.00 in/hr0.0 mm/hr 1.51 in38.4 mm
06:29 PM 42.4°F5.8°C 41.2°F5.1°C 95% 4.9 mph WSW7.9 kmh WSW 17.0 mph27.4 kmh 29.74 in1007.1 mb 0.20 in5.1 mm 0.00 in/hr0.0 mm/hr 1.53 in38.9 mm
06:39 PM 42.4°F5.8°C 41.2°F5.1°C 95% 6.0 mph NNE9.7 kmh NNE 19.0 mph30.6 kmh 29.71 in1006.1 mb 0.18 in4.6 mm 0.00 in/hr0.0 mm/hr 1.54 in39.1 mm
06:49 PM 42.4°F5.8°C 41.2°F5.1°C 95% 6.0 mph E9.7 kmh E 17.0 mph27.4 kmh 29.72 in1006.4 mb 0.13 in3.3 mm 0.00 in/hr0.0 mm/hr 1.55 in39.4 mm
06:59 PM 42.6°F5.9°C 41.4°F5.2°C 95% 6.0 mph N9.7 kmh N 17.0 mph27.4 kmh 29.69 in1005.4 mb 0.10 in2.5 mm 0.00 in/hr0.0 mm/hr 1.56 in39.6 mm
07:09 PM 42.6°F5.9°C 41.4°F5.2°C 95% 6.9 mph NNE11.1 kmh NNE 17.9 mph28.8 kmh 29.67 in1004.7 mb 0.09 in2.3 mm 0.00 in/hr0.0 mm/hr 1.57 in39.9 mm
07:19 PM 43.0°F6.1°C 41.7°F5.4°C 95% 6.9 mph NNW11.1 kmh NNW 19.9 mph32.0 kmh 29.67 in1004.7 mb 0.06 in1.5 mm 0.00 in/hr0.0 mm/hr 1.57 in39.9 mm
07:29 PM 43.2°F6.2°C 41.9°F5.5°C 95% 6.0 mph WSW9.7 kmh WSW 16.1 mph25.9 kmh 29.65 in1004.1 mb 0.05 in1.3 mm 0.00 in/hr0.0 mm/hr 1.58 in40.1 mm
07:39 PM 43.2°F6.2°C 41.5°F5.3°C 94% 8.1 mph NE13.0 kmh NE 21.0 mph33.8 kmh 29.65 in1004.1 mb 0.04 in1.0 mm 0.00 in/hr0.0 mm/hr 1.58 in40.1 mm
07:49 PM 43.3°F6.3°C 41.7°F5.4°C 94% 6.0 mph NE9.7 kmh NE 19.9 mph32.0 kmh 29.67 in1004.7 mb 0.03 in0.8 mm 0.00 in/hr0.0 mm/hr 1.58 in40.1 mm
07:59 PM 43.3°F6.3°C 41.7°F5.4°C 94% 6.0 mph ENE9.7 kmh ENE 17.9 mph28.8 kmh 29.66 in1004.4 mb 0.03 in0.8 mm 0.00 in/hr0.0 mm/hr 1.59 in40.4 mm
08:09 PM 43.3°F6.3°C 41.7°F5.4°C 94% 6.9 mph NE11.1 kmh NE 19.0 mph30.6 kmh 29.66 in1004.4 mb 0.03 in0.8 mm 0.00 in/hr0.0 mm/hr 1.60 in40.6 mm
08:19 PM 43.3°F6.3°C 41.7°F5.4°C 94% 4.9 mph N7.9 kmh N 17.9 mph28.8 kmh 29.67 in1004.7 mb 0.04 in1.0 mm 0.06 in/hr1.5 mm/hr 1.61 in40.9 mm
08:29 PM 43.3°F6.3°C 41.7°F5.4°C 94% 4.9 mph NE7.9 kmh NE 15.0 mph24.1 kmh 29.64 in1003.7 mb 0.04 in1.0 mm 0.00 in/hr0.0 mm/hr 1.62 in41.1 mm
08:39 PM 43.5°F6.4°C 41.9°F5.5°C 94% 6.0 mph ENE9.7 kmh ENE 19.0 mph30.6 kmh 29.63 in1003.4 mb 0.04 in1.0 mm 0.00 in/hr0.0 mm/hr 1.62 in41.1 mm
08:49 PM 43.5°F6.4°C 41.9°F5.5°C 94% 6.9 mph NE11.1 kmh NE 16.1 mph25.9 kmh 29.61 in1002.7 mb 0.04 in1.0 mm 0.00 in/hr0.0 mm/hr 1.62 in41.1 mm
08:59 PM 43.5°F6.4°C 41.9°F5.5°C 94% 6.9 mph NE11.1 kmh NE 18.0 mph29.0 kmh 29.61 in1002.7 mb 0.03 in0.8 mm 0.00 in/hr0.0 mm/hr 1.62 in41.1 mm
09:09 PM 43.7°F6.5°C 42.1°F5.6°C 94% 6.0 mph NNW9.7 kmh NNW 17.0 mph27.4 kmh 29.59 in1002.0 mb 0.02 in0.5 mm 0.00 in/hr0.0 mm/hr 1.62 in41.1 mm
09:19 PM 43.7°F6.5°C 42.1°F5.6°C 94% 6.0 mph E9.7 kmh E 17.0 mph27.4 kmh 29.57 in1001.4 mb 0.01 in0.3 mm 0.00 in/hr0.0 mm/hr 1.62 in41.1 mm
09:29 PM 43.9°F6.6°C 42.3°F5.7°C 94% 6.0 mph NE9.7 kmh NE 18.0 mph29.0 kmh 29.57 in1001.4 mb 0.00 in0.0 mm 0.00 in/hr0.0 mm/hr 1.62 in41.1 mm
09:39 PM 43.9°F6.6°C 42.3°F5.7°C 94% 4.9 mph NE7.9 kmh NE 16.0 mph25.7 kmh 29.58 in1001.7 mb 0.00 in0.0 mm 0.00 in/hr0.0 mm/hr 1.62 in41.1 mm
09:49 PM 43.9°F6.6°C 42.3°F5.7°C 94% 4.9 mph NE7.9 kmh NE 15.0 mph24.1 kmh 29.58 in1001.7 mb 0.00 in0.0 mm 0.00 in/hr0.0 mm/hr 1.62 in41.1 mm
09:59 PM 43.7°F6.5°C 42.1°F5.6°C 94% 4.9 mph W7.9 kmh W 15.0 mph24.1 kmh 29.58 in1001.7 mb 0.00 in0.0 mm 0.00 in/hr0.0 mm/hr 1.62 in41.1 mm
10:09 PM 43.5°F6.4°C 41.9°F5.5°C 94% 4.9 mph NE7.9 kmh NE 18.0 mph29.0 kmh 29.58 in1001.7 mb 0.01 in0.3 mm 0.01 in/hr0.3 mm/hr 1.63 in41.4 mm
10:19 PM 43.3°F6.3°C 41.7°F5.4°C 94% 6.0 mph NW9.7 kmh NW 17.0 mph27.4 kmh 29.58 in1001.7 mb 0.01 in0.3 mm 0.00 in/hr0.0 mm/hr 1.63 in41.4 mm
10:29 PM 43.2°F6.2°C 41.5°F5.3°C 94% 6.0 mph WNW9.7 kmh WNW 17.0 mph27.4 kmh 29.57 in1001.4 mb 0.01 in0.3 mm 0.00 in/hr0.0 mm/hr 1.63 in41.4 mm
10:39 PM 43.0°F6.1°C 41.4°F5.2°C 94% 4.9 mph NNW7.9 kmh NNW 13.0 mph20.9 kmh 29.59 in1002.0 mb 0.02 in0.5 mm 0.06 in/hr1.5 mm/hr 1.64 in41.7 mm
10:49 PM 42.4°F5.8°C 40.8°F4.9°C 94% 6.0 mph N9.7 kmh N 15.0 mph24.1 kmh 29.58 in1001.7 mb 0.02 in0.5 mm 0.00 in/hr0.0 mm/hr 1.64 in41.7 mm
10:59 PM 42.1°F5.6°C 40.5°F4.7°C 94% 4.9 mph NW7.9 kmh NW 14.0 mph22.5 kmh 29.58 in1001.7 mb 0.03 in0.8 mm 0.06 in/hr1.5 mm/hr 1.65 in41.9 mm
11:09 PM 41.4°F5.2°C 39.7°F4.3°C 94% 4.9 mph NE7.9 kmh NE 15.0 mph24.1 kmh 29.59 in1002.0 mb 0.02 in0.5 mm 0.00 in/hr0.0 mm/hr 1.65 in41.9 mm
11:19 PM 40.8°F4.9°C 39.2°F4.0°C 94% 4.9 mph NW7.9 kmh NW 10.1 mph16.3 kmh 29.59 in1002.0 mb 0.03 in0.8 mm 0.06 in/hr1.5 mm/hr 1.66 in42.2 mm
11:29 PM 40.5°F4.7°C 38.8°F3.8°C 94% 4.0 mph NE6.4 kmh NE 13.0 mph20.9 kmh 29.59 in1002.0 mb 0.04 in1.0 mm 0.06 in/hr1.5 mm/hr 1.67 in42.4 mm
11:39 PM 39.9°F4.4°C 38.3°F3.5°C 94% 6.0 mph NW9.7 kmh NW 13.0 mph20.9 kmh 29.59 in1002.0 mb 0.04 in1.0 mm 0.00 in/hr0.0 mm/hr 1.68 in42.7 mm
11:49 PM 39.6°F4.2°C 37.9°F3.3°C 94% 4.9 mph WNW7.9 kmh WNW 11.0 mph17.7 kmh 29.59 in1002.0 mb 0.04 in1.0 mm 0.00 in/hr0.0 mm/hr 1.68 in42.7 mm
11:59 PM 39.0°F3.9°C 37.2°F2.9°C 93% 4.0 mph WNW6.4 kmh WNW 16.1 mph25.9 kmh 29.61 in1002.7 mb 0.04 in1.0 mm 0.00 in/hr0.0 mm/hr 1.69 in42.9 mm